Time;durP1;ratioP1;P1;durP2;ratioP2;P2;SDS_P1;SDS_P2;PMS_P1;PMS_P2;Temp;Humidity;BMP_temperature;BMP_pressure;BME280_temperature;BME280_humidity;BME280_pressure;Samples;Min_cycle;Max_cycle;Signal;HPM_P1;HPM_P2
2022/06/27 04:03:29;;;;;;;1.47;1.37;;;17.10;99.90;;;;;;6182024;23;20821;31
2022/06/27 04:05:55;;;;;;;1.37;1.30;;;17.10;99.90;;;;;;4991690;28;20457;-72
2022/06/27 04:08:20;;;;;;;1.50;1.40;;;17.10;99.90;;;;;;4993901;28;20412;-71
2022/06/27 04:10:46;;;;;;;1.77;1.47;;;17.10;99.90;;;;;;4976411;28;20208;-70
2022/06/27 04:13:12;;;;;;;1.27;1.20;;;17.20;99.90;;;;;;4996094;28;20181;-70
2022/06/27 04:15:38;;;;;;;2.00;1.87;;;17.10;99.90;;;;;;5013077;28;20175;-70
2022/06/27 04:18:03;;;;;;;1.77;1.67;;;17.10;99.90;;;;;;4995159;28;20274;-71
2022/06/27 04:20:29;;;;;;;1.53;1.43;;;17.10;99.90;;;;;;5013020;28;20836;-70
2022/06/27 04:22:55;;;;;;;1.80;1.70;;;17.10;99.90;;;;;;5013194;28;20377;-70
2022/06/27 04:25:20;;;;;;;2.13;1.93;;;17.10;99.90;;;;;;5013545;28;20171;-70
2022/06/27 04:27:46;;;;;;;1.63;1.50;;;17.20;99.90;;;;;;5013178;28;20176;-70
2022/06/27 04:30:19;;;;;;;2.47;1.87;;;17.20;99.90;;;;;;5012640;28;20191;-70
2022/06/27 04:32:48;;;;;;;1.63;1.53;;;17.30;99.90;;;;;;4994424;28;20510;-71
2022/06/27 04:35:14;;;;;;;1.53;1.50;;;17.30;99.90;;;;;;5012602;28;20394;-69
2022/06/27 04:37:42;;;;;;;1.93;1.83;;;17.30;99.90;;;;;;5013220;28;20447;-70
2022/06/27 04:40:13;;;;;;;2.90;1.70;;;17.30;99.90;;;;;;5012778;28;20394;-70
2022/06/27 04:42:40;;;;;;;1.60;1.50;;;17.30;99.90;;;;;;5012973;28;20391;-70
2022/06/27 04:45:13;;;;;;;1.80;1.70;;;17.40;99.90;;;;;;5012742;28;20398;-70
2022/06/27 04:47:40;;;;;;;2.13;1.50;;;17.40;99.90;;;;;;5013170;28;20804;-70
2022/06/27 04:50:08;;;;;;;3.00;2.10;;;17.60;99.90;;;;;;5015337;28;20454;-70
2022/06/27 04:52:34;;;;;;;2.40;2.17;;;17.70;99.90;;;;;;5016178;28;20472;-70
2022/06/27 04:55:00;;;;;;;2.60;2.17;;;17.90;99.90;;;;;;5016696;28;20453;-70
2022/06/27 04:57:27;;;;;;;2.97;1.93;;;17.90;99.90;;;;;;5016293;28;20438;-70
2022/06/27 04:59:53;;;;;;;2.00;1.80;;;18.00;99.90;;;;;;4999058;28;20887;-69
2022/06/27 05:02:18;;;;;;;2.83;2.00;;;18.20;99.90;;;;;;5016243;28;20384;-69
2022/06/27 05:04:44;;;;;;;1.60;1.50;;;18.20;99.90;;;;;;5015967;28;20461;-68
2022/06/27 05:07:10;;;;;;;1.77;1.67;;;18.20;99.90;;;;;;5016214;28;20173;-69
2022/06/27 05:09:35;;;;;;;2.50;2.30;;;18.30;99.90;;;;;;5016444;28;20197;-69
2022/06/27 05:12:01;;;;;;;2.10;1.60;;;18.30;99.90;;;;;;5016403;28;20586;-70
2022/06/27 05:14:27;;;;;;;1.37;1.37;;;18.40;99.90;;;;;;4997912;28;20697;-70
2022/06/27 05:16:52;;;;;;;1.20;1.20;;;18.50;99.90;;;;;;5016120;28;20204;-69
2022/06/27 05:19:18;;;;;;;1.27;1.17;;;18.60;99.90;;;;;;5014592;28;20182;-70
2022/06/27 05:21:44;;;;;;;1.57;1.40;;;18.70;99.90;;;;;;5014823;28;20179;-70
2022/06/27 05:24:11;;;;;;;1.40;1.30;;;18.80;99.90;;;;;;5014860;28;20292;-71
2022/06/27 05:26:37;;;;;;;1.60;1.50;;;19.00;99.90;;;;;;4998077;28;20417;-71
2022/06/27 05:29:02;;;;;;;1.13;1.13;;;19.30;99.90;;;;;;5015749;28;20967;-73
2022/06/27 05:31:28;;;;;;;2.50;0.87;;;19.50;99.90;;;;;;5015605;28;20527;-71
2022/06/27 05:33:54;;;;;;;1.00;1.00;;;19.70;99.90;;;;;;4997883;28;20277;-72
2022/06/27 05:36:20;;;;;;;3.07;2.23;;;20.00;99.90;;;;;;5015317;28;20218;-72
2022/06/27 05:38:46;;;;;;;1.83;1.30;;;20.10;99.90;;;;;;4998329;28;20217;-70
2022/06/27 05:41:12;;;;;;;1.80;1.70;;;20.20;99.90;;;;;;5015902;28;20413;-73
2022/06/27 05:43:39;;;;;;;1.07;0.90;;;20.10;99.90;;;;;;5015105;28;20262;-72
2022/06/27 05:46:04;;;;;;;1.33;1.33;;;20.20;99.90;;;;;;5015173;28;20418;-72
2022/06/27 05:48:31;;;;;;;1.20;1.20;;;20.20;99.90;;;;;;4997732;28;20913;-72
2022/06/27 05:50:58;;;;;;;1.53;1.43;;;20.20;99.90;;;;;;5015657;28;20211;-72
2022/06/27 05:53:24;;;;;;;1.83;1.43;;;20.10;99.90;;;;;;5015068;28;20426;-72
2022/06/27 05:55:50;;;;;;;1.80;1.70;;;20.10;99.90;;;;;;5015402;28;20384;-72
2022/06/27 05:58:18;;;;;;;1.20;1.20;;;20.10;99.90;;;;;;5015491;28;20394;-72
2022/06/27 06:00:44;;;;;;;1.50;1.40;;;20.20;99.90;;;;;;4998301;28;20919;-72
2022/06/27 06:03:09;;;;;;;0.90;0.90;;;20.30;99.90;;;;;;5014973;28;20474;-72
2022/06/27 06:05:35;;;;;;;1.20;1.20;;;20.40;99.90;;;;;;4996763;28;20195;-71
2022/06/27 06:08:03;;;;;;;1.53;1.30;;;20.50;99.90;;;;;;5014750;28;20187;-72
2022/06/27 06:10:30;;;;;;;1.60;1.50;;;20.70;99.90;;;;;;5015614;28;20503;-72
2022/06/27 06:12:56;;;;;;;3.60;1.83;;;20.70;99.90;;;;;;5014683;28;20716;-72
2022/06/27 06:15:22;;;;;;;1.27;1.20;;;20.60;99.90;;;;;;5015212;28;20411;-72
2022/06/27 06:17:48;;;;;;;0.80;0.80;;;20.70;99.90;;;;;;5014644;28;20428;-72
2022/06/27 06:20:14;;;;;;;1.40;1.30;;;20.70;99.90;;;;;;5015137;28;20232;-71
2022/06/27 06:22:40;;;;;;;1.87;1.77;;;20.70;99.90;;;;;;5014727;28;20882;-70
2022/06/27 06:25:07;;;;;;;0.93;0.93;;;20.70;99.90;;;;;;4991888;28;20198;-70
2022/06/27 06:27:35;;;;;;;2.10;1.00;;;20.80;99.90;;;;;;4999905;28;20954;-70
2022/06/27 06:30:02;;;;;;;1.23;1.13;;;20.70;99.90;;;;;;5011555;28;20459;-72
2022/06/27 06:32:29;;;;;;;0.93;0.90;;;20.60;99.90;;;;;;5013901;28;20426;-69
2022/06/27 06:34:55;;;;;;;0.77;0.77;;;20.50;99.90;;;;;;5010290;28;20464;-71
2022/06/27 06:37:21;;;;;;;1.00;0.90;;;20.40;99.90;;;;;;5014441;28;20406;-71
2022/06/27 06:39:46;;;;;;;0.80;0.80;;;20.40;99.90;;;;;;5014530;28;20400;-70
2022/06/27 06:42:12;;;;;;;2.47;1.00;;;20.50;99.90;;;;;;5014078;28;20533;-72
2022/06/27 06:44:39;;;;;;;1.13;1.00;;;20.70;99.90;;;;;;5014495;28;20653;-70
2022/06/27 06:47:05;;;;;;;0.70;0.70;;;21.00;99.90;;;;;;5012405;28;20558;-70
2022/06/27 06:49:31;;;;;;;2.07;1.97;;;21.20;99.90;;;;;;4996481;28;20494;-71
2022/06/27 06:51:57;;;;;;;1.50;1.40;;;21.40;99.90;;;;;;5013156;28;20436;-71
2022/06/27 06:54:26;;;;;;;1.17;1.10;;;21.70;99.90;;;;;;5003159;28;20201;-72
2022/06/27 06:56:52;;;;;;;0.90;0.90;;;21.80;99.90;;;;;;5013526;28;20640;-72
2022/06/27 06:59:18;;;;;;;0.87;0.87;;;22.00;99.90;;;;;;5013957;28;20385;-73
2022/06/27 07:01:46;;;;;;;1.10;1.00;;;22.10;99.90;;;;;;5013910;28;20404;-72
2022/06/27 07:04:12;;;;;;;1.10;1.10;;;22.20;99.90;;;;;;5013573;28;20516;-72
2022/06/27 07:06:40;;;;;;;0.60;0.60;;;22.20;99.90;;;;;;5013884;28;20410;-72
2022/06/27 07:09:05;;;;;;;1.23;1.23;;;22.30;99.90;;;;;;5014076;28;20417;-72
2022/06/27 07:11:39;;;;;;;2.30;1.40;;;22.50;99.90;;;;;;5013179;28;20818;-73
2022/06/27 07:14:05;;;;;;;1.00;1.00;;;22.60;99.90;;;;;;5013663;28;20191;-72
2022/06/27 07:16:31;;;;;;;0.80;0.80;;;22.70;99.90;;;;;;5006468;28;20466;-72
2022/06/27 07:19:00;;;;;;;0.80;0.80;;;22.80;99.90;;;;;;5002750;28;20433;-72
2022/06/27 07:21:31;;;;;;;1.13;0.80;;;23.00;99.90;;;;;;5000459;28;20468;-73
2022/06/27 07:23:57;;;;;;;1.17;1.07;;;23.10;99.90;;;;;;5008859;28;20444;-73
2022/06/27 07:26:23;;;;;;;2.93;0.90;;;23.00;99.90;;;;;;5013660;28;20423;-74
2022/06/27 07:28:49;;;;;;;1.90;1.80;;;22.80;99.90;;;;;;5013583;28;20437;-72
2022/06/27 07:31:16;;;;;;;0.90;0.90;;;22.70;99.90;;;;;;5013478;28;20203;-71
2022/06/27 07:33:44;;;;;;;0.90;0.90;;;22.90;99.90;;;;;;5013192;28;20415;-71
2022/06/27 07:36:14;;;;;;;0.80;0.80;;;23.30;99.90;;;;;;5013724;28;20472;-73
2022/06/27 07:38:41;;;;;;;0.83;0.83;;;23.70;99.90;;;;;;5013670;28;20491;-73
2022/06/27 07:41:08;;;;;;;1.43;1.33;;;23.80;99.90;;;;;;4995225;28;20397;-72
2022/06/27 07:43:34;;;;;;;0.90;0.90;;;23.70;99.90;;;;;;4995522;28;20427;-72
2022/06/27 07:46:01;;;;;;;0.80;0.80;;;23.60;99.90;;;;;;5012756;28;20480;-72
2022/06/27 07:48:27;;;;;;;1.00;1.00;;;23.20;99.90;;;;;;5013361;28;20426;-74
2022/06/27 07:50:54;;;;;;;0.90;0.90;;;23.00;99.90;;;;;;5013018;28;20450;-74
2022/06/27 07:53:20;;;;;;;1.27;1.27;;;22.90;99.90;;;;;;5012795;28;20886;-72
2022/06/27 07:55:48;;;;;;;1.20;1.20;;;23.00;99.90;;;;;;5012981;28;20400;-71
2022/06/27 07:58:16;;;;;;;1.03;1.03;;;23.00;99.90;;;;;;5012852;28;20533;-71
2022/06/27 08:00:44;;;;;;;1.40;1.30;;;22.80;99.90;;;;;;5012698;28;20783;-72
2022/06/27 08:05:54;;;;;;;1.20;1.20;;;23.40;99.90;;;;;;5013116;28;20420;-70
2022/06/27 08:08:23;;;;;;;1.37;1.00;;;24.20;99.90;;;;;;5012628;28;20423;-70
2022/06/27 08:10:50;;;;;;;1.10;1.10;;;25.00;99.90;;;;;;4995239;28;20199;-71
2022/06/27 08:13:15;;;;;;;1.30;1.20;;;25.80;99.90;;;;;;5012249;28;20420;-71
2022/06/27 08:15:42;;;;;;;1.37;1.27;;;26.30;99.90;;;;;;5008047;28;20487;-69
2022/06/27 08:18:08;;;;;;;1.30;1.30;;;26.80;99.90;;;;;;4995295;28;20628;-71
2022/06/27 08:20:37;;;;;;;1.03;1.03;;;27.10;99.90;;;;;;5008776;28;20795;-72
2022/06/27 08:23:03;;;;;;;0.97;0.97;;;27.40;99.90;;;;;;4994042;28;20385;-72
2022/06/27 08:25:29;;;;;;;0.90;0.90;;;28.10;99.90;;;;;;4996823;28;20449;-70
2022/06/27 08:27:55;;;;;;;1.00;1.00;;;28.30;99.90;;;;;;4979390;28;20414;-70
2022/06/27 08:30:25;;;;;;;1.47;1.37;;;28.40;99.90;;;;;;4998500;28;20968;-69
2022/06/27 08:32:56;;;;;;;1.07;1.07;;;28.50;99.80;;;;;;5016275;28;20517;-69
2022/06/27 08:35:24;;;;;;;0.80;0.80;;;29.10;99.90;;;;;;4999156;28;20440;-71
2022/06/27 08:37:50;;;;;;;2.57;1.30;;;29.90;99.90;;;;;;5015419;28;20429;-71
2022/06/27 08:40:17;;;;;;;2.90;1.20;;;30.80;98.90;;;;;;4998740;28;20508;-73
2022/06/27 08:42:44;;;;;;;1.40;1.30;;;31.90;96.90;;;;;;4998443;28;20445;-72
2022/06/27 08:45:15;;;;;;;1.20;1.20;;;32.70;93.30;;;;;;5016716;28;20417;-71
2022/06/27 08:47:41;;;;;;;1.20;1.20;;;32.70;93.10;;;;;;5015637;28;20429;-70
2022/06/27 08:50:09;;;;;;;1.10;1.10;;;32.10;93.30;;;;;;5016373;28;20811;-71
2022/06/27 08:52:39;;;;;;;1.73;1.00;;;30.90;93.90;;;;;;4996903;28;20417;-71
2022/06/27 08:55:09;;;;;;;1.00;1.00;;;30.30;95.50;;;;;;4996732;28;20442;-70
2022/06/27 08:57:42;;;;;;;3.67;1.60;;;29.20;95.20;;;;;;4996720;28;20382;-71
2022/06/27 09:00:11;;;;;;;0.93;0.93;;;28.40;97.30;;;;;;4996805;28;20494;-70
2022/06/27 09:02:42;;;;;;;1.57;1.47;;;27.80;97.80;;;;;;5006266;28;20898;-71
2022/06/27 09:05:19;;;;;;;1.20;1.20;;;27.20;99.20;;;;;;5015815;28;20819;-71
2022/06/27 09:07:56;;;;;;;1.33;1.33;;;26.60;99.30;;;;;;5016343;28;20376;-71
2022/06/27 09:10:42;;;;;;;1.40;1.30;;;26.00;99.90;;;;;;4997448;28;20442;-71
2022/06/27 09:13:11;;;;;;;1.10;1.10;;;25.40;99.90;;;;;;4996095;28;20414;-71
2022/06/27 09:15:44;;;;;;;1.90;1.60;;;25.00;99.90;;;;;;4996421;28;20416;-71
2022/06/27 09:18:11;;;;;;;1.53;1.43;;;24.60;99.90;;;;;;4995453;28;20409;-71
2022/06/27 09:20:46;;;;;;;1.37;1.27;;;24.40;99.90;;;;;;5015589;28;20925;-71
2022/06/27 09:23:53;;;;;;;2.10;2.00;;;24.20;99.90;;;;;;5015410;28;20905;-70
2022/06/27 09:26:34;;;;;;;1.20;1.20;;;24.00;99.90;;;;;;5007119;28;20403;-69
2022/06/27 09:29:14;;;;;;;2.70;1.50;;;23.70;99.90;;;;;;4996327;28;20536;-71
2022/06/27 09:31:48;;;;;;;2.00;1.90;;;23.20;99.90;;;;;;5007807;28;20490;-70
2022/06/27 09:34:20;;;;;;;1.47;1.37;;;22.90;99.90;;;;;;5014769;28;20425;-71
2022/06/27 09:36:50;;;;;;;2.00;1.90;;;22.80;99.90;;;;;;5015317;28;20421;-71
2022/06/27 09:39:29;;;;;;;1.53;1.47;;;22.90;99.90;;;;;;5015756;28;20846;-71
2022/06/27 09:42:04;;;;;;;1.50;1.40;;;23.30;99.90;;;;;;5015795;28;20433;-71
2022/06/27 09:44:33;;;;;;;1.97;1.87;;;23.60;99.90;;;;;;5015530;28;20428;-73
2022/06/27 09:47:18;;;;;;;1.43;1.33;;;23.90;99.90;;;;;;5014897;28;20421;-72
2022/06/27 09:49:52;;;;;;;1.90;1.80;;;24.10;99.90;;;;;;5015587;28;20461;-70
2022/06/27 09:52:24;;;;;;;1.67;1.57;;;24.00;99.90;;;;;;5015192;28;20489;-71
2022/06/27 09:54:52;;;;;;;1.60;1.60;;;23.80;99.90;;;;;;5015459;28;20407;-73
2022/06/27 09:57:19;;;;;;;1.43;1.43;;;23.60;99.90;;;;;;4999091;28;20394;-73
2022/06/27 09:59:50;;;;;;;1.60;1.40;;;23.50;99.90;;;;;;5001812;28;20422;-72
2022/06/27 10:02:18;;;;;;;1.80;1.70;;;23.40;99.90;;;;;;5014666;28;20450;-73
2022/06/27 10:04:45;;;;;;;1.60;1.50;;;23.40;99.90;;;;;;4997371;28;21017;-71
2022/06/27 10:07:12;;;;;;;1.73;1.63;;;23.40;99.90;;;;;;5013009;28;20428;-72
2022/06/27 10:09:40;;;;;;;4.00;1.97;;;23.60;99.90;;;;;;5003461;28;20407;-69
2022/06/27 10:12:28;;;;;;;1.10;1.10;;;24.10;99.90;;;;;;5013363;28;20403;-71
2022/06/27 10:15:14;;;;;;;1.60;1.50;;;25.20;99.90;;;;;;5014611;28;20464;-71
2022/06/27 10:17:41;;;;;;;2.20;2.00;;;26.00;99.90;;;;;;5014849;28;20442;-71
2022/06/27 10:20:26;;;;;;;1.63;1.53;;;26.70;99.90;;;;;;5014480;28;20437;-72
2022/06/27 10:23:04;;;;;;;1.87;1.77;;;27.20;99.90;;;;;;5014617;28;20381;-70
2022/06/27 10:25:29;;;;;;;1.30;1.20;;;27.20;99.90;;;;;;5014640;28;20437;-71
2022/06/27 10:28:08;;;;;;;1.90;1.80;;;27.10;99.90;;;;;;5014389;28;20892;-72
2022/06/27 10:30:56;;;;;;;2.10;2.00;;;27.20;99.90;;;;;;5014252;28;20580;-73
2022/06/27 10:33:25;;;;;;;2.53;2.27;;;27.20;99.90;;;;;;5014287;28;20396;-71
2022/06/27 10:36:01;;;;;;;2.30;2.10;;;27.30;99.90;;;;;;5014696;28;20763;-72
2022/06/27 10:38:27;;;;;;;2.83;2.63;;;27.50;99.90;;;;;;5014537;28;20402;-73
2022/06/27 10:40:54;;;;;;;2.30;2.20;;;27.70;99.90;;;;;;5014548;28;20460;-72
2022/06/27 10:43:35;;;;;;;1.90;1.80;;;28.00;99.90;;;;;;4995625;28;20194;-72
2022/06/27 10:46:10;;;;;;;2.43;2.23;;;28.00;99.30;;;;;;5013617;28;20827;-72
2022/06/27 10:48:45;;;;;;;2.10;2.00;;;27.60;99.30;;;;;;5014101;28;20489;-71
2022/06/27 10:51:26;;;;;;;2.50;2.40;;;27.20;99.90;;;;;;5014285;28;20436;-71
2022/06/27 10:54:09;;;;;;;2.30;2.20;;;27.10;99.90;;;;;;5013805;28;20425;-71
2022/06/27 10:56:35;;;;;;;2.03;1.93;;;27.10;99.90;;;;;;5014071;28;20543;-71
2022/06/27 10:59:06;;;;;;;2.10;1.90;;;27.00;99.90;;;;;;5013956;28;20894;-71
2022/06/27 11:01:32;;;;;;;2.30;2.20;;;26.90;99.90;;;;;;5013712;28;20171;-72
2022/06/27 11:03:58;;;;;;;1.93;1.83;;;27.10;99.90;;;;;;5013402;28;20429;-71
2022/06/27 11:06:25;;;;;;;3.30;2.70;;;27.60;99.90;;;;;;5014033;28;20433;-71
2022/06/27 11:08:53;;;;;;;3.07;2.87;;;28.30;99.50;;;;;;5014045;28;20410;-72
2022/06/27 11:11:23;;;;;;;1.90;1.77;;;28.60;98.50;;;;;;5007570;28;20464;-73
2022/06/27 11:13:49;;;;;;;2.10;2.00;;;28.60;99.10;;;;;;5012937;28;20488;-73
2022/06/27 11:16:23;;;;;;;1.90;1.80;;;28.30;98.10;;;;;;5013646;28;20480;-72
2022/06/27 11:18:54;;;;;;;2.30;2.20;;;28.00;98.70;;;;;;5013954;28;20398;-71
2022/06/27 11:21:21;;;;;;;2.10;2.00;;;27.70;99.00;;;;;;4989438;28;20429;-72
2022/06/27 11:23:57;;;;;;;1.80;1.70;;;27.30;99.50;;;;;;4993856;28;20465;-71
2022/06/27 11:26:25;;;;;;;2.70;1.80;;;26.70;99.50;;;;;;5000059;28;20408;-71
2022/06/27 11:34:21;;;;;;;1.57;1.47;;;26.20;99.90;;;;;;4993736;28;20434;-71
2022/06/27 11:36:47;;;;;;;1.67;1.57;;;25.90;99.90;;;;;;4994245;28;20395;-72
2022/06/27 11:39:15;;;;;;;2.47;1.57;;;25.60;99.90;;;;;;4993975;28;20905;-73
2022/06/27 11:41:41;;;;;;;1.60;1.50;;;25.30;99.90;;;;;;5005298;28;20277;-72
2022/06/27 11:44:14;;;;;;;2.20;2.10;;;25.00;99.90;;;;;;5011836;28;20513;-74
2022/06/27 11:46:46;;;;;;;2.50;2.40;;;24.70;99.90;;;;;;4995248;28;20306;-72
2022/06/27 11:49:18;;;;;;;2.03;1.93;;;24.50;99.90;;;;;;4995022;28;20470;-71
2022/06/27 11:51:48;;;;;;;2.53;2.30;;;24.30;99.90;;;;;;5012938;28;21004;-71
2022/06/27 11:54:16;;;;;;;1.37;1.30;;;24.00;99.90;;;;;;5009282;28;20412;-72
2022/06/27 11:56:47;;;;;;;1.80;1.70;;;23.90;99.90;;;;;;5012551;28;20428;-70
2022/06/27 11:59:15;;;;;;;2.10;2.00;;;23.70;99.90;;;;;;5012477;28;20380;-72
2022/06/27 12:01:57;;;;;;;2.03;1.80;;;23.50;99.90;;;;;;5013550;28;20497;-73
2022/06/27 12:04:41;;;;;;;1.87;1.77;;;23.30;99.90;;;;;;5012391;28;20464;-71
2022/06/27 12:07:08;;;;;;;1.50;1.50;;;23.20;99.90;;;;;;5013496;28;20413;-73
2022/06/27 12:09:48;;;;;;;1.90;1.80;;;23.10;99.90;;;;;;5013449;28;20412;-72
2022/06/27 12:12:18;;;;;;;1.87;1.77;;;23.10;99.90;;;;;;5013001;28;20377;-72
2022/06/27 12:14:48;;;;;;;2.10;1.90;;;23.00;99.90;;;;;;5013105;28;20520;-72
2022/06/27 12:17:13;;;;;;;2.97;2.07;;;23.00;99.90;;;;;;5013519;28;20402;-73
2022/06/27 12:19:41;;;;;;;2.20;2.00;;;22.80;99.90;;;;;;5013032;28;20777;-73
2022/06/27 12:22:12;;;;;;;1.57;1.47;;;22.70;99.90;;;;;;5012935;28;20217;-73
2022/06/27 12:24:38;;;;;;;2.13;1.97;;;22.40;99.90;;;;;;5012598;28;20423;-72
2022/06/27 12:27:04;;;;;;;2.57;2.30;;;22.30;99.90;;;;;;5013186;28;20873;-71
2022/06/27 12:29:31;;;;;;;2.73;2.53;;;22.20;99.90;;;;;;5013070;28;20405;-72
2022/06/27 12:31:57;;;;;;;2.47;2.10;;;22.20;99.90;;;;;;5013146;28;20266;-71
2022/06/27 12:34:22;;;;;;;1.67;1.57;;;22.20;99.90;;;;;;5012780;28;20776;-70
2022/06/27 12:36:48;;;;;;;2.57;2.37;;;22.20;99.90;;;;;;5012976;28;20393;-72
2022/06/27 12:39:13;;;;;;;2.40;2.20;;;22.20;99.90;;;;;;5012223;28;20656;-70
2022/06/27 12:41:39;;;;;;;1.97;1.87;;;22.20;99.90;;;;;;5012823;28;20182;-71
2022/06/27 12:44:05;;;;;;;2.30;2.10;;;22.10;99.90;;;;;;5012523;28;20238;-73
2022/06/27 12:46:32;;;;;;;2.00;1.90;;;22.20;99.90;;;;;;5013148;28;20250;-73
2022/06/27 12:48:58;;;;;;;2.30;2.03;;;22.10;99.90;;;;;;5012685;28;20417;-71
2022/06/27 12:51:25;;;;;;;1.97;1.83;;;22.20;99.90;;;;;;5012645;28;20461;-71
2022/06/27 12:53:52;;;;;;;3.93;2.83;;;22.20;99.90;;;;;;5012256;28;20449;-70
2022/06/27 12:56:18;;;;;;;2.23;2.10;;;22.30;99.90;;;;;;5013128;28;20380;-70
2022/06/27 12:58:44;;;;;;;3.10;2.00;;;22.30;99.90;;;;;;5013011;28;20412;-71
2022/06/27 13:01:10;;;;;;;1.90;1.70;;;22.40;99.90;;;;;;5012991;28;20765;-71
2022/06/27 13:03:35;;;;;;;2.20;2.00;;;22.30;99.90;;;;;;5012548;28;20223;-73
2022/06/27 13:06:01;;;;;;;1.87;1.77;;;22.40;99.90;;;;;;4995255;28;20193;-72
2022/06/27 13:08:27;;;;;;;2.00;1.87;;;22.40;99.90;;;;;;4995193;28;20276;-71
2022/06/27 13:10:53;;;;;;;1.83;1.73;;;22.40;99.90;;;;;;5015257;28;20205;-72
2022/06/27 13:13:19;;;;;;;2.00;1.90;;;22.40;99.90;;;;;;5016084;28;20199;-71
2022/06/27 13:15:45;;;;;;;1.87;1.77;;;22.40;99.90;;;;;;5016491;28;20734;-71
2022/06/27 13:18:10;;;;;;;1.50;1.17;;;22.40;99.90;;;;;;5016782;28;20175;-72
2022/06/27 13:20:36;;;;;;;2.93;1.40;;;22.30;99.90;;;;;;5016392;28;20176;-71
2022/06/27 13:23:02;;;;;;;2.10;1.90;;;22.20;99.90;;;;;;5015334;28;20184;-71
2022/06/27 13:25:28;;;;;;;1.70;1.60;;;22.10;99.90;;;;;;5016298;28;20472;-72
2022/06/27 13:27:54;;;;;;;1.50;1.40;;;22.10;99.90;;;;;;5016079;28;20173;-72
2022/06/27 13:30:20;;;;;;;1.50;1.40;;;22.00;99.90;;;;;;4998157;28;21047;-72
2022/06/27 13:32:46;;;;;;;1.60;1.50;;;22.00;99.90;;;;;;5015712;28;20534;-72
2022/06/27 13:35:12;;;;;;;1.63;1.53;;;21.90;99.90;;;;;;4998752;28;20728;-72
2022/06/27 13:37:38;;;;;;;1.40;1.30;;;22.00;99.90;;;;;;5015511;28;20468;-72
2022/06/27 13:40:06;;;;;;;1.63;1.53;;;21.90;99.90;;;;;;5015992;28;20425;-72
2022/06/27 13:42:33;;;;;;;1.50;1.40;;;21.90;99.90;;;;;;5015471;28;20825;-72
2022/06/27 13:44:59;;;;;;;1.77;1.67;;;21.80;99.90;;;;;;5015911;28;20949;-71
2022/06/27 13:47:25;;;;;;;1.20;1.20;;;21.80;99.90;;;;;;5015846;28;20421;-72
2022/06/27 13:49:51;;;;;;;1.30;1.30;;;21.80;99.90;;;;;;4998279;28;20733;-72
2022/06/27 13:52:20;;;;;;;1.67;1.57;;;21.80;99.90;;;;;;5015173;28;20411;-71
2022/06/27 13:54:46;;;;;;;1.70;1.60;;;21.80;99.90;;;;;;4997881;28;20774;-71
2022/06/27 13:57:12;;;;;;;1.67;1.57;;;21.90;99.90;;;;;;5015645;28;20375;-70
2022/06/27 13:59:38;;;;;;;5.37;1.63;;;22.00;99.90;;;;;;4997908;28;20821;-72
2022/06/27 14:02:05;;;;;;;1.27;1.17;;;22.20;99.90;;;;;;5015331;28;20171;-72
2022/06/27 14:04:30;;;;;;;1.80;1.70;;;22.40;99.90;;;;;;5014900;28;20542;-72
2022/06/27 14:09:41;;;;;;;3.27;1.90;;;22.70;99.90;;;;;;5015812;28;20308;-72
2022/06/27 14:12:07;;;;;;;1.40;1.30;;;22.80;99.90;;;;;;5015064;28;20384;-73
2022/06/27 14:14:33;;;;;;;1.80;1.70;;;22.80;99.90;;;;;;4997754;28;20424;-72
2022/06/27 14:16:59;;;;;;;1.70;1.60;;;22.80;99.90;;;;;;5015444;28;20739;-72
2022/06/27 14:19:25;;;;;;;1.30;1.20;;;22.60;99.90;;;;;;5015222;28;20181;-72
2022/06/27 14:21:51;;;;;;;1.80;1.70;;;22.60;99.90;;;;;;5015009;28;20594;-72
2022/06/27 14:24:16;;;;;;;1.70;1.50;;;22.50;99.90;;;;;;5014717;28;20405;-71
2022/06/27 14:26:42;;;;;;;1.40;1.40;;;22.60;99.90;;;;;;5015110;28;20176;-71
2022/06/27 14:29:08;;;;;;;1.60;1.50;;;22.50;99.90;;;;;;5015235;28;20174;-72
2022/06/27 14:31:34;;;;;;;1.33;1.30;;;22.50;99.90;;;;;;5014982;28;20457;-71
2022/06/27 14:34:00;;;;;;;2.27;2.07;;;22.50;99.90;;;;;;5014315;28;20852;-71
2022/06/27 14:36:27;;;;;;;2.07;1.97;;;22.50;99.90;;;;;;5013959;28;20187;-71
2022/06/27 14:38:53;;;;;;;6.10;1.77;;;22.60;99.90;;;;;;5014918;28;20386;-72
2022/06/27 14:41:19;;;;;;;1.97;1.87;;;22.50;99.90;;;;;;5015151;28;20389;-72
2022/06/27 14:43:45;;;;;;;2.07;1.97;;;22.40;99.90;;;;;;5014327;28;20469;-72
2022/06/27 14:46:10;;;;;;;1.80;1.70;;;22.40;99.90;;;;;;4997233;28;20637;-72
2022/06/27 14:48:36;;;;;;;2.30;2.20;;;22.30;99.90;;;;;;5014330;28;20192;-72
2022/06/27 14:51:02;;;;;;;1.73;1.63;;;22.40;99.90;;;;;;5014740;28;20201;-72
2022/06/27 14:53:28;;;;;;;1.70;1.60;;;22.40;99.90;;;;;;5014354;28;20192;-70
2022/06/27 14:55:54;;;;;;;1.67;1.57;;;22.40;99.90;;;;;;5014480;28;20167;-72
2022/06/27 14:58:20;;;;;;;1.67;1.57;;;22.40;99.90;;;;;;5014854;28;20381;-72
2022/06/27 15:00:45;;;;;;;1.90;1.80;;;22.30;99.90;;;;;;5014641;28;20185;-72
2022/06/27 15:03:14;;;;;;;1.83;1.70;;;22.40;99.90;;;;;;5013555;28;20638;-72
2022/06/27 15:05:40;;;;;;;2.40;2.20;;;22.50;99.90;;;;;;5014211;28;20238;-72
2022/06/27 15:08:05;;;;;;;1.70;1.60;;;22.50;99.90;;;;;;5014339;28;20416;-71
2022/06/27 15:11:36;;;;;;;1.40;1.40;;;22.60;99.90;;;;;;5014227;28;20212;-72
2022/06/27 15:13:17;;;;;;;1.67;1.57;;;22.60;99.90;;;;;;5013657;28;20212;-71
2022/06/27 15:15:43;;;;;;;1.70;1.60;;;22.60;99.90;;;;;;5014351;28;20384;-71
2022/06/27 15:18:09;;;;;;;1.80;1.70;;;22.60;99.90;;;;;;5013815;28;20423;-71
2022/06/27 15:20:35;;;;;;;2.23;2.03;;;22.60;99.90;;;;;;5014060;28;20751;-72
2022/06/27 15:23:01;;;;;;;2.40;1.67;;;22.70;99.90;;;;;;5013929;28;20391;-71
2022/06/27 15:25:26;;;;;;;2.80;2.37;;;22.80;99.90;;;;;;5014117;28;20181;-72
2022/06/27 15:27:52;;;;;;;1.63;1.53;;;22.90;99.90;;;;;;4996551;28;20189;-72
2022/06/27 15:30:18;;;;;;;1.57;1.50;;;23.00;99.90;;;;;;5014030;28;20536;-71
2022/06/27 15:32:45;;;;;;;1.90;1.70;;;23.10;99.90;;;;;;4994961;28;20184;-72
2022/06/27 15:35:10;;;;;;;1.73;1.63;;;23.10;99.90;;;;;;5013778;28;20407;-72
2022/06/27 15:37:37;;;;;;;2.00;1.90;;;23.10;99.90;;;;;;4996281;28;20414;-70
2022/06/27 15:40:04;;;;;;;1.70;1.60;;;23.10;99.90;;;;;;5013942;28;20375;-72
2022/06/27 15:42:30;;;;;;;1.97;1.87;;;23.10;99.90;;;;;;5013582;28;20441;-72
2022/06/27 15:44:56;;;;;;;2.00;1.90;;;23.00;99.90;;;;;;5013893;28;20483;-71
2022/06/27 15:47:22;;;;;;;1.63;1.53;;;23.00;99.90;;;;;;5013431;28;20652;-71
2022/06/27 15:49:48;;;;;;;2.83;2.13;;;22.80;99.90;;;;;;5013900;28;20217;-71
2022/06/27 15:52:13;;;;;;;1.93;1.80;;;22.80;99.90;;;;;;5013292;28;20176;-71
2022/06/27 15:54:39;;;;;;;2.37;2.27;;;22.80;99.90;;;;;;5013600;28;20411;-71
2022/06/27 15:57:05;;;;;;;1.83;1.70;;;22.80;99.90;;;;;;5013781;28;20807;-72
2022/06/27 15:59:31;;;;;;;1.67;1.60;;;22.70;99.90;;;;;;5013195;28;20406;-71
2022/06/27 16:01:57;;;;;;;2.03;1.93;;;22.80;99.90;;;;;;5013623;28;20175;-71
2022/06/27 16:04:23;;;;;;;3.93;2.17;;;22.60;99.90;;;;;;5012688;28;20786;-71
2022/06/27 16:06:48;;;;;;;2.40;2.30;;;22.60;99.90;;;;;;5013717;28;20640;-72
2022/06/27 16:09:14;;;;;;;2.30;2.20;;;22.50;99.90;;;;;;5013518;28;20404;-72
2022/06/27 16:11:40;;;;;;;12.40;9.13;;;22.50;99.90;;;;;;5013337;28;20201;-72
2022/06/27 16:14:05;;;;;;;3.67;3.47;;;22.40;99.90;;;;;;5013109;28;20689;-72
2022/06/27 16:16:31;;;;;;;2.80;2.40;;;22.40;99.90;;;;;;5013351;28;20209;-72
2022/06/27 16:18:57;;;;;;;2.10;2.00;;;22.40;99.90;;;;;;4995174;28;20179;-72
2022/06/27 16:21:23;;;;;;;2.30;2.20;;;22.40;99.90;;;;;;5013072;28;20169;-71
2022/06/27 16:23:49;;;;;;;2.20;2.10;;;22.40;99.90;;;;;;4995365;28;20494;-72
2022/06/27 16:26:14;;;;;;;2.30;2.10;;;22.40;99.90;;;;;;5013679;28;20171;-72
2022/06/27 16:28:40;;;;;;;2.40;2.30;;;22.30;99.90;;;;;;5013137;28;20669;-71
2022/06/27 16:33:50;;;;;;;1.60;1.50;;;22.10;99.90;;;;;;5012888;28;20200;-72
2022/06/27 16:36:15;;;;;;;2.50;1.93;;;22.00;99.90;;;;;;4995315;28;20433;-71
2022/06/27 16:38:41;;;;;;;2.53;1.90;;;21.90;99.90;;;;;;5013152;28;20258;-71
2022/06/27 16:41:08;;;;;;;2.50;2.30;;;21.90;99.90;;;;;;5013110;28;20176;-71
2022/06/27 16:43:33;;;;;;;3.43;2.40;;;21.70;99.90;;;;;;4995089;28;20211;-74
2022/06/27 16:45:59;;;;;;;2.43;2.30;;;21.40;99.90;;;;;;4997903;28;20792;-73
2022/06/27 16:48:26;;;;;;;2.33;2.17;;;21.20;99.90;;;;;;5016987;28;20179;-72
2022/06/27 16:51:00;;;;;;;2.67;2.47;;;21.20;99.90;;;;;;5016837;28;20203;-71
2022/06/27 16:53:26;;;;;;;2.47;2.37;;;21.20;99.90;;;;;;5016577;28;20419;-73
2022/06/27 16:55:52;;;;;;;2.00;1.90;;;21.10;99.90;;;;;;5017041;28;20497;-73
2022/06/27 16:58:17;;;;;;;2.70;2.50;;;21.10;99.90;;;;;;5016503;28;20820;-73
2022/06/27 17:00:43;;;;;;;2.20;1.83;;;21.00;99.90;;;;;;5016680;28;20179;-73
2022/06/27 17:03:10;;;;;;;2.70;2.50;;;20.90;99.90;;;;;;5016196;28;20660;-71
2022/06/27 17:05:38;;;;;;;2.80;2.53;;;20.80;99.90;;;;;;5016577;28;20411;-72
2022/06/27 17:08:04;;;;;;;2.73;2.53;;;20.80;99.90;;;;;;5016719;28;20413;-72